Time;durP1;ratioP1;P1;durP2;ratioP2;P2;SDS_P1;SDS_P2;PMS_P1;PMS_P2;Temp;Humidity;BMP_temperature;BMP_pressure;BME280_temperature;BME280_humidity;BME280_pressure;Samples;Min_cycle;Max_cycle;Signal;HPM_P1;HPM_P2
2020/12/15 00:00:29;;;;;;;6.90;5.77;;;5.60;99.90;;;6.27;88.29;99904.81;4716914;30;20711;-77
2020/12/15 00:02:56;;;;;;;7.00;6.20;;;5.60;99.90;;;6.53;87.06;99897.72;4717206;30;20221;-77
2020/12/15 00:05:24;;;;;;;7.30;6.53;;;5.60;99.90;;;6.30;87.96;99894.53;4717024;30;20320;-76
2020/12/15 00:07:51;;;;;;;7.23;6.50;;;5.50;99.90;;;6.64;86.20;99905.19;4716888;30;20263;-76
2020/12/15 00:10:19;;;;;;;7.00;6.30;;;5.60;99.90;;;6.72;85.55;99899.66;4716954;30;20301;-76
2020/12/15 00:12:46;;;;;;;7.70;6.40;;;5.70;99.90;;;6.63;86.16;99908.06;4716885;30;20223;-76
2020/12/15 00:15:14;;;;;;;6.77;6.00;;;5.70;99.90;;;6.61;85.91;99894.88;4716733;30;20657;-76
2020/12/15 00:17:41;;;;;;;9.10;6.70;;;5.70;99.90;;;6.72;85.58;99896.97;4716719;30;20707;-78
2020/12/15 00:20:10;;;;;;;8.17;6.93;;;5.70;99.90;;;6.48;87.01;99897.50;4716730;30;20217;-75
2020/12/15 00:22:37;;;;;;;7.03;6.30;;;5.60;99.90;;;6.47;86.22;99887.00;4716817;30;20224;-76
2020/12/15 00:25:06;;;;;;;7.10;6.13;;;5.60;99.90;;;6.34;87.77;99892.31;4716757;30;20340;-76
2020/12/15 00:27:34;;;;;;;7.30;6.60;;;5.50;99.90;;;6.58;86.48;99900.63;4716710;30;20299;-75
2020/12/15 00:30:01;;;;;;;8.10;6.30;;;5.50;99.90;;;6.82;84.78;99902.75;4716532;30;20254;-78
2020/12/15 00:32:29;;;;;;;7.70;6.50;;;5.70;99.90;;;6.69;85.35;99907.25;4716758;30;20214;-76
2020/12/15 00:34:56;;;;;;;7.87;6.37;;;5.70;99.90;;;6.63;85.36;99908.06;4717554;30;20266;-74
2020/12/15 00:37:23;;;;;;;7.87;6.77;;;5.70;99.90;;;6.40;87.01;99905.69;4716400;30;20216;-76
2020/12/15 00:39:51;;;;;;;8.07;5.77;;;5.60;99.90;;;6.53;86.22;99908.41;4716429;30;20243;-75
2020/12/15 00:42:18;;;;;;;7.90;6.40;;;5.60;99.90;;;6.30;86.99;99915.94;4716189;30;20638;-76
2020/12/15 00:44:46;;;;;;;8.07;6.83;;;5.60;99.90;;;6.56;86.24;99916.03;4716219;30;20680;-76
2020/12/15 00:47:13;;;;;;;6.90;6.10;;;5.60;99.90;;;6.52;85.79;99922.00;4716244;30;20303;-76
2020/12/15 00:49:41;;;;;;;7.90;7.10;;;5.60;99.90;;;6.60;86.11;99924.50;4716750;30;20200;-76
2020/12/15 00:52:08;;;;;;;7.43;6.10;;;5.60;99.90;;;6.62;86.51;99919.78;4716294;30;20256;-77
2020/12/15 00:54:35;;;;;;;8.20;6.17;;;5.60;99.90;;;6.55;86.58;99922.44;4716329;30;20318;-76
2020/12/15 00:57:02;;;;;;;7.90;6.20;;;5.70;99.90;;;6.70;85.47;99923.09;4716231;30;20311;-76
2020/12/15 00:59:29;;;;;;;7.90;6.23;;;5.70;99.90;;;6.65;85.81;99930.91;4716474;30;20321;-76
2020/12/15 01:01:59;;;;;;;8.10;7.03;;;5.80;99.90;;;6.51;85.82;99926.53;4716116;30;20213;-74
2020/12/15 01:04:27;;;;;;;8.10;6.60;;;5.80;99.90;;;6.45;86.33;99911.28;4716505;30;20243;-76
2020/12/15 01:06:56;;;;;;;7.17;6.20;;;5.70;99.90;;;6.28;88.10;99899.25;4715921;30;20224;-77
2020/12/15 01:09:23;;;;;;;7.93;6.17;;;5.60;99.90;;;6.35;87.51;99884.06;4715849;30;20255;-76
2020/12/15 01:11:50;;;;;;;8.20;7.00;;;5.60;99.90;;;6.28;87.36;99875.19;4716072;30;20240;-77
2020/12/15 01:14:18;;;;;;;6.73;5.57;;;5.50;99.90;;;6.37;87.76;99862.47;4716267;30;20217;-77
2020/12/15 01:16:45;;;;;;;6.70;6.00;;;5.50;99.90;;;6.40;87.44;99873.59;4716138;30;20248;-74
2020/12/15 01:19:13;;;;;;;6.60;5.90;;;5.50;99.90;;;6.48;86.42;99881.44;4715847;30;20222;-76
2020/12/15 01:21:40;;;;;;;7.07;5.90;;;5.60;99.90;;;6.81;84.17;99881.56;4716133;30;20210;-76
2020/12/15 01:24:08;;;;;;;6.70;5.90;;;5.70;99.90;;;6.71;85.40;99881.94;4715974;30;20298;-74
2020/12/15 01:26:36;;;;;;;7.90;6.00;;;5.80;99.90;;;6.58;86.31;99892.59;4715738;30;20252;-75
2020/12/15 01:29:03;;;;;;;7.77;6.03;;;5.70;99.90;;;6.77;85.45;99885.66;4716204;30;20223;-76
2020/12/15 01:31:31;;;;;;;6.50;5.80;;;5.80;99.90;;;6.64;84.94;99882.94;4716056;30;20256;-75
2020/12/15 01:33:59;;;;;;;7.73;5.63;;;5.80;99.90;;;6.65;85.11;99882.75;4716288;30;20212;-76
2020/12/15 01:36:29;;;;;;;7.20;5.80;;;5.80;99.90;;;6.56;85.22;99893.84;4716116;30;20216;-77
2020/12/15 01:38:56;;;;;;;7.53;5.60;;;5.70;99.90;;;6.90;82.65;99886.50;4715736;30;20655;-76
2020/12/15 01:41:28;;;;;;;7.17;5.67;;;5.80;99.90;;;6.82;82.89;99888.53;4715893;30;20205;-77
2020/12/15 01:43:57;;;;;;;6.90;5.80;;;5.80;99.90;;;6.98;82.18;99889.03;4716023;30;20229;-77
2020/12/15 01:46:25;;;;;;;6.40;5.43;;;5.90;99.90;;;6.67;83.20;99869.16;4715967;30;20241;-76
2020/12/15 01:48:54;;;;;;;7.00;6.27;;;5.90;99.90;;;6.49;84.80;99866.22;4715741;30;20299;-75
2020/12/15 01:51:21;;;;;;;7.83;5.87;;;5.70;99.90;;;6.79;83.59;99857.66;4715964;30;20241;-75
2020/12/15 01:53:54;;;;;;;6.57;5.40;;;5.80;99.90;;;6.85;82.80;99854.16;4715455;30;20304;-75
2020/12/15 01:56:22;;;;;;;6.03;5.37;;;5.80;99.90;;;7.02;81.64;99852.75;4715981;30;20263;-76
2020/12/15 01:58:54;;;;;;;7.17;5.93;;;6.00;99.90;;;6.91;81.47;99855.22;4719102;30;20249;-75
2020/12/15 02:01:23;;;;;;;5.80;5.13;;;6.00;99.90;;;6.79;82.66;99865.69;4718920;30;20284;-76
2020/12/15 02:03:52;;;;;;;5.97;5.37;;;5.90;99.90;;;6.74;83.18;99864.66;4718962;30;20789;-75
2020/12/15 02:06:22;;;;;;;5.93;5.30;;;5.90;99.90;;;6.84;82.76;99852.53;4719014;30;20267;-75
2020/12/15 02:08:51;;;;;;;7.03;5.77;;;5.90;99.90;;;6.69;83.19;99854.56;4718570;30;20726;-77
2020/12/15 02:11:18;;;;;;;6.80;5.73;;;5.80;99.90;;;6.98;83.19;99856.88;4718536;30;20640;-75
2020/12/15 02:13:46;;;;;;;6.20;5.57;;;5.80;99.90;;;6.97;81.20;99855.22;4719005;30;20206;-74
2020/12/15 02:16:15;;;;;;;6.23;5.47;;;5.90;99.90;;;6.82;81.43;99848.41;4719069;30;20305;-74
2020/12/15 02:18:42;;;;;;;6.00;5.40;;;5.90;99.90;;;6.53;82.96;99849.56;4718832;30;20680;-74
2020/12/15 02:21:11;;;;;;;5.73;5.13;;;5.80;99.90;;;6.76;82.24;99839.34;4718566;30;20275;-75
2020/12/15 02:23:40;;;;;;;6.13;5.40;;;5.80;99.90;;;6.32;84.43;99839.00;4718390;30;20738;-75
2020/12/15 02:26:10;;;;;;;7.50;5.90;;;5.60;99.90;;;6.40;83.35;99833.47;4718407;30;20677;-77
2020/12/15 02:28:40;;;;;;;5.37;4.77;;;5.60;99.90;;;6.32;83.71;99838.16;4718217;30;20693;-74
2020/12/15 02:31:08;;;;;;;5.50;4.57;;;5.60;99.90;;;6.51;82.85;99840.09;4718241;30;20237;-75
2020/12/15 02:33:35;;;;;;;5.80;4.90;;;5.60;99.90;;;6.55;82.16;99850.19;4718322;30;20618;-76
2020/12/15 02:36:02;;;;;;;5.60;4.97;;;5.60;99.90;;;6.39;83.79;99844.38;4718708;30;20304;-74
2020/12/15 02:38:30;;;;;;;5.53;4.97;;;5.60;99.90;;;6.68;81.59;99852.88;4718448;30;20300;-75
2020/12/15 02:40:58;;;;;;;7.13;5.83;;;5.70;99.90;;;6.64;81.28;99840.13;4718395;30;20255;-75
2020/12/15 02:43:26;;;;;;;5.80;5.20;;;5.70;99.90;;;6.45;82.58;99847.06;4718109;30;20223;-75
2020/12/15 02:45:53;;;;;;;5.93;5.00;;;5.70;99.90;;;6.66;81.11;99849.63;4718357;30;20328;-75
2020/12/15 02:48:21;;;;;;;5.37;4.80;;;5.70;99.90;;;6.65;81.18;99844.44;4717996;30;20746;-74
2020/12/15 02:50:48;;;;;;;6.03;5.00;;;5.70;99.90;;;6.47;81.99;99845.03;4718415;30;20303;-76
2020/12/15 02:53:15;;;;;;;6.37;5.20;;;5.70;99.90;;;6.41;82.86;99848.47;4718086;30;20309;-76
2020/12/15 02:55:42;;;;;;;6.07;4.80;;;5.60;99.90;;;6.28;82.94;99844.94;4718043;30;20213;-75
2020/12/15 02:58:10;;;;;;;5.57;4.80;;;5.50;99.90;;;6.19;83.48;99852.31;4718277;30;20219;-76
2020/12/15 03:00:37;;;;;;;5.70;4.77;;;5.50;99.90;;;6.42;81.56;99852.00;4718034;30;20213;-76
2020/12/15 03:03:05;;;;;;;5.93;5.20;;;5.50;99.90;;;6.53;80.52;99838.84;4718301;30;20213;-76
2020/12/15 03:05:32;;;;;;;5.60;4.83;;;5.50;99.90;;;6.37;81.94;99849.94;4718134;30;20565;-75
2020/12/15 03:07:59;;;;;;;5.20;4.70;;;5.50;99.90;;;6.52;80.92;99845.25;4717732;30;20403;-76
2020/12/15 03:10:26;;;;;;;5.40;4.73;;;5.60;99.90;;;6.65;79.98;99844.44;4718050;30;20296;-75
2020/12/15 03:12:53;;;;;;;4.97;4.10;;;5.60;99.90;;;6.37;80.49;99849.09;4717808;30;20751;-76
2020/12/15 03:15:21;;;;;;;5.17;4.57;;;5.50;99.90;;;6.35;81.34;99849.31;4717863;30;20308;-75
2020/12/15 03:17:49;;;;;;;5.60;5.03;;;5.50;99.90;;;6.41;80.82;99850.34;4717982;30;20287;-76
2020/12/15 03:20:16;;;;;;;5.80;4.73;;;5.50;99.90;;;6.38;80.69;99864.94;4718002;30;20312;-76
2020/12/15 03:22:43;;;;;;;5.00;4.50;;;5.50;99.90;;;6.78;78.84;99858.69;4717590;30;20308;-75
2020/12/15 03:25:10;;;;;;;6.13;4.30;;;5.60;99.90;;;6.85;78.15;99856.84;4717489;30;20730;-75
2020/12/15 03:27:45;;;;;;;5.57;4.23;;;5.80;99.90;;;6.90;77.39;99854.38;4717418;30;20258;-76
2020/12/15 03:30:12;;;;;;;4.80;4.30;;;5.90;99.90;;;6.60;78.22;99853.09;4717732;30;20685;-75
2020/12/15 03:32:40;;;;;;;5.07;4.40;;;5.90;99.90;;;6.79;77.87;99863.03;4717892;30;20220;-76
2020/12/15 03:35:07;;;;;;;5.47;4.33;;;5.80;99.90;;;6.69;78.24;99862.59;4717870;30;20255;-76
2020/12/15 03:37:34;;;;;;;5.73;4.67;;;5.80;99.90;;;6.91;77.41;99864.06;4717623;30;20593;-75
2020/12/15 03:40:02;;;;;;;5.93;4.37;;;5.90;99.90;;;6.63;78.41;99870.59;4717434;30;20248;-75
2020/12/15 03:42:32;;;;;;;4.67;4.07;;;5.90;99.90;;;6.49;78.77;99869.72;4717312;30;20562;-76
2020/12/15 03:45:00;;;;;;;5.77;4.50;;;5.80;99.90;;;6.56;78.35;99864.41;4717198;30;20611;-75
2020/12/15 03:47:27;;;;;;;5.10;4.30;;;5.70;99.90;;;6.57;78.34;99871.38;4717189;30;20253;-74
2020/12/15 03:49:55;;;;;;;5.07;4.00;;;5.70;99.90;;;6.85;76.99;99870.22;4717157;30;20672;-75
2020/12/15 03:52:23;;;;;;;4.97;4.47;;;5.70;99.90;;;7.04;76.61;99863.25;4717319;30;20518;-75
2020/12/15 03:54:50;;;;;;;5.00;4.10;;;5.90;99.90;;;6.96;77.16;99861.63;4716979;30;20227;-76
2020/12/15 03:57:17;;;;;;;5.37;4.53;;;5.90;99.90;;;6.98;76.67;99869.44;4717067;30;20316;-76
2020/12/15 03:59:44;;;;;;;4.80;4.30;;;5.90;99.90;;;6.97;76.71;99873.13;4717177;30;20214;-76
2020/12/15 04:02:11;;;;;;;5.17;4.47;;;6.00;99.90;;;7.05;76.12;99862.25;4717171;30;20301;-76
2020/12/15 04:04:39;;;;;;;5.27;4.50;;;6.00;99.90;;;6.94;76.66;99869.03;4717058;30;20249;-75
2020/12/15 04:07:07;;;;;;;4.70;4.30;;;6.00;99.90;;;7.04;76.26;99868.63;4717061;30;20256;-76
2020/12/15 04:09:34;;;;;;;5.53;4.50;;;6.10;99.90;;;6.95;76.61;99884.03;4716688;30;20652;-74
2020/12/15 04:12:01;;;;;;;6.63;4.30;;;6.00;99.90;;;7.17;75.61;99871.31;4716702;30;20306;-75
2020/12/15 04:14:29;;;;;;;4.90;4.40;;;6.10;99.90;;;7.08;76.40;99873.38;4717105;30;20311;-76
2020/12/15 04:16:56;;;;;;;5.27;4.43;;;6.10;99.90;;;6.91;76.95;99882.81;4716943;30;20252;-75
2020/12/15 04:19:24;;;;;;;4.87;4.10;;;6.10;99.90;;;6.39;78.88;99882.66;4715970;30;20315;-75
2020/12/15 04:21:51;;;;;;;5.60;4.57;;;5.90;99.90;;;6.37;79.10;99879.34;4716883;30;20257;-74
2020/12/15 04:24:19;;;;;;;4.70;4.30;;;5.70;99.90;;;6.13;80.96;99882.53;4716582;30;20319;-74
2020/12/15 04:26:46;;;;;;;5.30;4.80;;;5.60;99.90;;;6.07;81.21;99876.09;4716495;30;20766;-75
2020/12/15 04:29:13;;;;;;;5.20;4.30;;;5.40;99.90;;;6.14;81.44;99886.84;4716573;30;20266;-75
2020/12/15 04:31:40;;;;;;;4.73;4.30;;;5.30;99.90;;;6.26;80.40;99879.91;4716787;30;20599;-76
2020/12/15 04:34:08;;;;;;;5.27;4.63;;;5.40;99.90;;;6.45;79.37;99867.63;4717704;30;20216;-75
2020/12/15 04:36:35;;;;;;;5.33;4.60;;;5.40;99.90;;;6.26;80.27;99874.56;4717736;30;20217;-75
2020/12/15 04:39:03;;;;;;;5.27;4.70;;;5.40;99.90;;;6.61;78.24;99886.03;4717587;30;20305;-77
2020/12/15 04:41:31;;;;;;;5.43;4.60;;;5.50;99.90;;;6.28;79.76;99885.88;4716750;30;20252;-76
2020/12/15 04:44:00;;;;;;;6.20;4.93;;;5.40;99.90;;;6.09;81.02;99886.59;4716689;30;20304;-76
2020/12/15 04:46:29;;;;;;;5.50;4.47;;;5.30;99.90;;;6.03;81.03;99895.44;4716677;30;20308;-75
2020/12/15 04:49:06;;;;;;;5.30;4.80;;;5.30;99.90;;;6.13;81.25;99885.19;4716331;30;20237;-76
2020/12/15 04:51:43;;;;;;;6.07;4.77;;;5.20;99.90;;;5.83;82.56;99889.97;4716360;30;20197;-74
2020/12/15 04:54:17;;;;;;;5.93;5.00;;;5.10;99.90;;;6.06;81.44;99876.31;4716199;30;20665;-76
2020/12/15 04:56:46;;;;;;;5.47;4.80;;;5.20;99.90;;;5.93;82.52;99886.94;4716371;30;20573;-76
2020/12/15 04:59:13;;;;;;;5.07;4.57;;;5.10;99.90;;;5.74;83.03;99871.56;4716407;30;20238;-75
2020/12/15 05:01:41;;;;;;;5.97;5.00;;;5.00;99.90;;;5.89;82.77;99866.97;4716315;30;20684;-75
2020/12/15 05:04:11;;;;;;;5.63;5.03;;;5.00;99.90;;;5.96;82.39;99865.16;4716290;30;20217;-75
2020/12/15 05:06:41;;;;;;;5.53;4.87;;;5.00;99.90;;;6.10;81.40;99872.22;4716161;30;20297;-75
2020/12/15 05:09:09;;;;;;;5.27;4.40;;;5.10;99.90;;;6.43;79.29;99867.03;4716096;30;20213;-76
2020/12/15 05:11:36;;;;;;;6.60;5.20;;;5.30;99.90;;;6.59;78.44;99858.63;4716021;30;20297;-75
2020/12/15 05:14:04;;;;;;;7.10;5.03;;;5.40;99.90;;;6.49;78.76;99851.00;4716490;30;20217;-76
2020/12/15 05:16:39;;;;;;;5.63;4.80;;;5.50;99.90;;;6.57;78.35;99841.94;4716059;30;20216;-75
2020/12/15 05:19:07;;;;;;;6.10;5.07;;;5.60;99.90;;;6.81;77.00;99849.44;4715986;30;20250;-75
2020/12/15 05:21:34;;;;;;;6.70;4.90;;;5.70;99.90;;;6.75;77.30;99840.34;4716139;30;20304;-75
2020/12/15 05:24:01;;;;;;;5.30;4.53;;;5.80;99.90;;;6.77;77.53;99845.50;4715632;30;20218;-75
2020/12/15 05:26:29;;;;;;;5.97;4.87;;;5.80;99.90;;;6.66;78.61;99841.59;4715624;30;20221;-75
2020/12/15 05:29:06;;;;;;;6.40;5.00;;;5.80;99.90;;;6.65;77.77;99845.28;4715642;30;20696;-75
2020/12/15 05:31:33;;;;;;;6.43;4.83;;;5.80;99.90;;;6.89;76.54;99851.91;4717687;30;20216;-76
2020/12/15 05:34:03;;;;;;;5.57;4.80;;;5.80;99.90;;;6.71;77.58;99849.00;4719579;30;20239;-75
2020/12/15 05:36:31;;;;;;;7.67;5.70;;;5.90;99.90;;;7.14;76.45;99867.19;4719648;30;20218;-75
2020/12/15 05:39:04;;;;;;;5.97;5.17;;;6.00;99.90;;;7.10;75.58;99865.13;4719367;30;20302;-75
2020/12/15 05:41:33;;;;;;;5.57;4.97;;;6.10;99.90;;;6.91;77.12;99877.47;4719454;30;20272;-75
2020/12/15 05:44:03;;;;;;;6.20;4.97;;;6.00;99.90;;;6.81;77.74;99876.19;4719351;30;20209;-76
2020/12/15 05:46:33;;;;;;;6.17;5.43;;;6.00;99.90;;;7.13;77.02;99875.44;4719149;30;20788;-76
2020/12/15 05:49:05;;;;;;;6.53;5.33;;;6.00;99.90;;;6.79;77.69;99883.59;4719170;30;20257;-75
2020/12/15 05:51:41;;;;;;;39.73;24.53;;;6.00;99.90;;;6.91;77.58;99877.47;4719187;30;20206;-75
2020/12/15 05:54:10;;;;;;;6.63;5.30;;;5.90;99.90;;;6.81;78.38;99865.50;4719456;30;20209;-75
2020/12/15 05:56:39;;;;;;;6.27;5.27;;;5.90;99.90;;;6.79;77.18;99873.72;4718991;30;20213;-75
2020/12/15 05:59:20;;;;;;;6.10;5.30;;;5.90;99.90;;;6.99;76.83;99855.84;4719327;30;20241;-75
2020/12/15 06:01:50;;;;;;;5.87;4.50;;;6.00;99.90;;;6.82;76.73;99845.72;4719138;30;20198;-75
2020/12/15 06:04:18;;;;;;;5.87;5.27;;;5.90;99.90;;;6.51;78.33;99851.59;4719366;30;20512;-75
2020/12/15 06:06:47;;;;;;;6.10;5.50;;;5.80;99.90;;;6.88;76.98;99851.06;4718933;30;20710;-75
2020/12/15 06:09:16;;;;;;;7.40;5.00;;;5.90;99.90;;;7.06;75.91;99848.66;4718495;30;20701;-76
2020/12/15 06:11:47;;;;;;;6.13;5.20;;;6.00;99.90;;;6.82;77.91;99851.06;4718981;30;20223;-75
2020/12/15 06:14:15;;;;;;;6.53;5.57;;;5.90;99.90;;;7.07;76.05;99857.53;4718550;30;20645;-75
2020/12/15 06:16:43;;;;;;;5.87;4.80;;;6.00;99.90;;;6.95;76.53;99859.16;4718702;30;20693;-75
2020/12/15 06:19:19;;;;;;;5.97;5.13;;;6.00;99.90;;;6.81;76.85;99849.44;4718904;30;20648;-77
2020/12/15 06:21:50;;;;;;;5.83;4.77;;;5.90;99.90;;;6.69;77.08;99846.53;4718807;30;20297;-74
2020/12/15 06:24:27;;;;;;;6.70;5.10;;;5.90;99.90;;;6.59;77.91;99862.16;4718486;30;20228;-75
2020/12/15 06:26:57;;;;;;;7.80;5.80;;;5.80;99.90;;;7.06;75.52;99851.31;4718645;30;20203;-75
2020/12/15 06:29:34;;;;;;;8.13;5.87;;;5.90;99.90;;;7.21;75.17;99848.44;4718970;30;20299;-75
2020/12/15 06:32:07;;;;;;;6.20;5.23;;;6.10;99.90;;;7.05;75.35;99841.63;4718621;30;20200;-75
2020/12/15 06:34:36;;;;;;;8.57;5.43;;;6.10;99.90;;;6.86;75.55;99861.19;4718314;30;20206;-75
2020/12/15 06:37:03;;;;;;;6.63;5.07;;;6.10;99.90;;;6.90;75.47;99848.22;4718456;30;20287;-75
2020/12/15 06:39:30;;;;;;;7.90;5.60;;;6.00;99.90;;;6.93;75.55;99855.84;4718525;30;20288;-76
2020/12/15 06:42:03;;;;;;;7.67;5.47;;;6.10;99.90;;;7.06;74.73;99859.38;4717630;30;20297;-75
2020/12/15 06:44:33;;;;;;;7.30;5.60;;;6.10;99.90;;;7.09;74.67;99860.78;4717867;30;20213;-75
2020/12/15 06:47:03;;;;;;;9.17;6.90;;;6.10;99.90;;;7.23;74.04;99854.44;4718205;30;20197;-75
2020/12/15 06:49:33;;;;;;;6.80;5.30;;;6.20;99.90;;;6.97;74.63;99855.22;4718290;30;20227;-75
2020/12/15 06:52:04;;;;;;;9.70;5.53;;;6.20;99.90;;;7.00;75.15;99854.81;4717898;30;20202;-75
2020/12/15 06:54:36;;;;;;;7.63;5.60;;;6.10;99.90;;;7.02;74.94;99836.69;4718162;30;20205;-75
2020/12/15 06:57:07;;;;;;;7.90;6.13;;;6.10;99.90;;;6.96;75.16;99845.56;4717899;30;20198;-77
2020/12/15 06:59:39;;;;;;;6.77;5.73;;;6.10;99.90;;;6.89;75.71;99857.25;4717709;30;20677;-75
2020/12/15 07:02:12;;;;;;;7.13;5.73;;;6.00;99.90;;;7.06;74.34;99856.69;4718020;30;20205;-76
2020/12/15 07:04:44;;;;;;;7.80;5.60;;;6.10;99.90;;;7.02;74.83;99868.81;4717924;30;20245;-75
2020/12/15 07:07:14;;;;;;;8.27;5.97;;;6.10;99.90;;;7.07;74.51;99854.84;4718050;30;20296;-75
2020/12/15 07:09:43;;;;;;;8.03;5.93;;;6.10;99.90;;;6.99;74.23;99857.69;4717653;30;20615;-76
2020/12/15 07:12:15;;;;;;;11.57;6.20;;;6.10;99.90;;;7.05;74.89;99857.69;4717551;30;20322;-74
2020/12/15 07:14:51;;;;;;;7.10;5.77;;;6.10;99.90;;;6.88;75.19;99877.84;4717980;30;20198;-73
2020/12/15 07:17:18;;;;;;;6.70;5.53;;;6.00;99.90;;;7.25;73.64;99869.28;4717980;30;20275;-75
2020/12/15 07:19:46;;;;;;;7.03;5.70;;;6.10;99.90;;;7.24;73.47;99867.59;4717976;30;20217;-75
2020/12/15 07:22:14;;;;;;;8.47;5.87;;;6.20;99.90;;;7.49;72.30;99881.22;4717524;30;20631;-75
2020/12/15 07:24:43;;;;;;;9.53;6.27;;;6.40;99.90;;;7.42;72.94;99881.22;4717517;30;20241;-76
2020/12/15 07:27:12;;;;;;;8.27;5.73;;;6.30;99.90;;;7.26;73.19;99884.31;4717294;30;20248;-75
2020/12/15 07:29:41;;;;;;;8.03;6.03;;;6.40;99.90;;;7.61;72.00;99868.03;4717726;30;20197;-75
2020/12/15 07:32:18;;;;;;;7.40;5.60;;;6.50;99.90;;;7.35;73.08;99868.84;4717773;30;20249;-76
2020/12/15 07:34:45;;;;;;;6.97;5.43;;;6.40;99.90;;;7.37;72.65;99874.84;4717577;30;20716;-75
2020/12/15 07:37:19;;;;;;;8.47;6.00;;;6.40;99.90;;;7.28;72.92;99878.75;4717203;30;20307;-76
2020/12/15 07:39:47;;;;;;;8.37;6.33;;;6.40;99.90;;;7.25;73.20;99882.66;4717086;30;20201;-75
2020/12/15 07:42:14;;;;;;;8.53;6.70;;;6.40;99.90;;;7.54;72.07;99877.94;4717163;30;20218;-76
2020/12/15 07:44:43;;;;;;;8.63;5.97;;;6.50;99.90;;;7.56;72.14;99879.34;4717328;30;20225;-76
2020/12/15 07:47:11;;;;;;;8.63;5.70;;;6.40;99.90;;;7.52;72.27;99890.69;4717159;30;20299;-75
2020/12/15 07:49:39;;;;;;;8.37;5.80;;;6.60;99.90;;;7.61;72.56;99884.09;4717282;30;20211;-76
2020/12/15 07:52:06;;;;;;;9.10;6.83;;;6.60;99.90;;;7.55;72.03;99869.66;4717217;30;20309;-77
2020/12/15 07:54:34;;;;;;;8.23;6.23;;;6.60;99.90;;;7.50;72.73;99877.50;4715675;30;20260;-76
2020/12/15 07:57:02;;;;;;;9.53;7.20;;;6.60;99.90;;;7.62;71.88;99878.53;4716656;30;20210;-77
2020/12/15 07:59:31;;;;;;;10.13;6.63;;;6.60;99.90;;;7.67;71.38;99873.38;4717823;30;20382;-75
2020/12/15 08:01:59;;;;;;;7.23;5.97;;;6.70;99.90;;;7.60;72.58;99867.19;4734390;30;20222;-77
2020/12/15 08:04:26;;;;;;;8.47;6.40;;;6.70;99.90;;;7.44;72.34;99859.59;4734487;30;20224;-73
2020/12/15 08:06:54;;;;;;;8.33;5.90;;;6.60;99.90;;;7.32;73.13;99864.72;4734088;30;20252;-74
2020/12/15 08:09:21;;;;;;;8.17;6.50;;;6.60;99.90;;;7.57;72.98;99875.66;4733983;30;20223;-72
2020/12/15 08:11:50;;;;;;;9.53;6.53;;;6.60;99.90;;;7.57;73.44;99881.00;4733941;30;20586;-73
2020/12/15 08:14:18;;;;;;;10.30;6.97;;;6.50;99.90;;;7.83;71.55;99882.84;4734268;30;20221;-73
2020/12/15 08:16:47;;;;;;;9.40;6.63;;;6.70;99.90;;;7.90;71.42;99884.47;4734119;30;20209;-73
2020/12/15 08:19:24;;;;;;;9.33;7.23;;;6.80;99.90;;;7.86;71.45;99888.63;4734201;30;20220;-73
2020/12/15 08:21:51;;;;;;;8.70;6.53;;;6.80;99.90;;;7.67;71.95;99894.00;4734247;30;20284;-73
2020/12/15 08:24:22;;;;;;;9.10;7.33;;;6.80;99.90;;;7.65;72.23;99896.88;4733646;30;20217;-75
2020/12/15 08:26:50;;;;;;;8.67;6.50;;;6.80;99.90;;;7.96;71.34;99899.75;4733421;30;20726;-74
2020/12/15 08:29:20;;;;;;;10.03;7.23;;;6.90;99.90;;;7.93;71.47;99902.81;4734016;30;20204;-75
2020/12/15 08:31:47;;;;;;;9.70;6.80;;;6.90;99.90;;;7.85;72.20;99899.53;4734338;30;20303;-74
2020/12/15 08:34:17;;;;;;;9.63;7.40;;;6.90;99.90;;;8.01;71.17;99899.94;4733932;30;20243;-73
2020/12/15 08:36:48;;;;;;;8.37;6.80;;;7.00;99.90;;;8.30;69.74;99898.66;4733762;30;20547;-73
2020/12/15 08:39:19;;;;;;;10.07;7.03;;;7.10;99.90;;;8.35;69.52;99897.00;4734217;30;20718;-73
2020/12/15 08:41:48;;;;;;;8.63;6.97;;;7.10;99.90;;;8.25;70.29;99899.25;4734706;30;20259;-73
2020/12/15 08:44:18;;;;;;;9.73;7.63;;;7.20;99.90;;;8.46;69.42;99900.84;4733823;30;20684;-74
2020/12/15 08:46:46;;;;;;;10.47;7.57;;;7.20;99.90;;;8.53;69.16;99894.44;4733721;30;20260;-74
2020/12/15 08:49:15;;;;;;;9.87;7.73;;;7.30;99.90;;;8.42;69.27;99899.66;4733620;30;20236;-77
2020/12/15 08:51:44;;;;;;;11.20;7.33;;;7.40;99.90;;;8.22;70.98;99893.50;4733700;30;20209;-78
2020/12/15 08:54:12;;;;;;;9.57;7.17;;;7.40;99.90;;;8.36;70.61;99903.16;4732876;30;20224;-73
2020/12/15 08:56:40;;;;;;;10.37;7.53;;;7.40;99.90;;;8.10;70.92;99893.28;4741482;30;20246;-71
2020/12/15 08:59:11;;;;;;;9.37;7.10;;;7.30;99.90;;;8.21;70.33;99889.16;4737605;30;20684;-71
2020/12/15 09:01:42;;;;;;;11.77;6.90;;;7.30;99.90;;;8.27;70.53;99882.97;4730050;30;20209;-71
2020/12/15 09:04:10;;;;;;;9.87;7.13;;;7.30;99.90;;;8.25;70.47;99887.72;4730497;30;20213;-74
2020/12/15 09:06:40;;;;;;;12.53;7.40;;;7.30;99.90;;;8.35;70.71;99899.69;4729904;30;20233;-74
2020/12/15 09:09:08;;;;;;;8.53;6.87;;;7.40;99.90;;;8.25;70.93;99896.59;4731037;30;20299;-74
2020/12/15 09:11:36;;;;;;;10.87;7.23;;;7.30;99.90;;;8.26;71.45;99889.38;4730150;30;20217;-74
2020/12/15 09:14:05;;;;;;;10.00;7.40;;;7.40;99.90;;;8.20;71.38;99882.16;4729960;30;20247;-75
2020/12/15 09:16:34;;;;;;;10.90;7.30;;;7.30;99.90;;;8.41;70.49;99888.09;4730186;30;20592;-77
2020/12/15 09:19:14;;;;;;;10.33;7.67;;;7.40;99.90;;;8.51;70.43;99887.63;4730346;30;20217;-75
2020/12/15 09:21:44;;;;;;;11.77;7.83;;;7.50;99.90;;;8.49;70.92;99895.06;4729988;30;20229;-76
2020/12/15 09:24:13;;;;;;;9.97;7.40;;;7.50;99.90;;;8.38;70.47;99888.50;4730120;30;20263;-77
2020/12/15 09:26:40;;;;;;;10.87;7.13;;;7.60;99.90;;;8.41;70.81;99885.41;4730123;30;20236;-75
2020/12/15 09:29:09;;;;;;;10.07;7.43;;;7.60;99.90;;;8.43;71.92;99885.19;4729929;30;20303;-69
2020/12/15 09:31:37;;;;;;;10.77;8.00;;;7.60;99.90;;;8.61;70.33;99893.34;4729684;30;20213;-69
2020/12/15 09:34:05;;;;;;;9.93;7.47;;;7.60;99.90;;;8.74;70.14;99890.63;4729985;30;20216;-69
2020/12/15 09:36:33;;;;;;;9.93;7.47;;;7.80;99.90;;;8.83;70.37;99885.84;4729919;30;20640;-69
2020/12/15 09:39:01;;;;;;;9.73;7.27;;;7.80;99.90;;;8.87;68.90;99890.56;4729762;30;20220;-71
2020/12/15 09:41:35;;;;;;;10.03;7.67;;;7.90;99.90;;;9.00;69.39;99892.34;4729298;30;20212;-71
2020/12/15 09:44:03;;;;;;;9.40;7.47;;;8.00;99.90;;;9.11;68.66;99900.53;4729729;30;20201;-72
2020/12/15 09:46:31;;;;;;;9.43;6.77;;;8.00;99.90;;;9.14;68.21;99893.91;4729595;30;20240;-73
2020/12/15 09:48:59;;;;;;;9.20;7.20;;;8.10;99.90;;;9.19;68.74;99894.91;4729172;30;20727;-71
2020/12/15 09:51:27;;;;;;;9.30;7.43;;;8.20;99.90;;;9.35;68.09;99880.91;4729624;30;20217;-72
2020/12/15 09:53:55;;;;;;;10.53;7.63;;;8.20;99.90;;;9.39;67.94;99875.94;4729957;30;20263;-71
2020/12/15 09:56:22;;;;;;;10.00;7.17;;;8.30;99.90;;;9.53;66.58;99872.94;4728991;30;20248;-72
2020/12/15 09:58:49;;;;;;;11.07;7.33;;;8.40;99.90;;;9.72;67.05;99874.59;4729306;30;20595;-70
2020/12/15 10:01:20;;;;;;;11.07;7.53;;;8.60;99.90;;;9.72;66.28;99877.28;4729721;30;20198;-72
2020/12/15 10:03:48;;;;;;;9.97;7.30;;;8.60;99.90;;;9.81;66.08;99873.28;4729504;30;20699;-68
2020/12/15 10:06:15;;;;;;;10.13;7.43;;;8.70;99.90;;;9.98;65.86;99875.41;4729604;30;20339;-66
2020/12/15 10:08:44;;;;;;;9.57;7.90;;;8.80;99.90;;;9.84;66.41;99885.47;4729094;30;20266;-72
2020/12/15 10:11:16;;;;;;;9.77;7.80;;;8.90;99.90;;;9.72;67.81;99882.66;4729154;30;20252;-79
2020/12/15 10:13:43;;;;;;;8.90;7.30;;;8.80;99.90;;;9.62;67.09;99878.84;4733293;30;20232;-80
2020/12/15 10:16:11;;;;;;;10.37;7.60;;;8.80;99.90;;;9.61;67.16;99880.72;4730288;30;20303;-66
2020/12/15 10:18:39;;;;;;;13.07;8.37;;;8.70;99.90;;;9.61;67.46;99879.88;4731399;30;20688;-74
2020/12/15 10:21:07;;;;;;;19.63;14.17;;;8.80;99.90;;;9.52;67.53;99890.09;4732342;30;20757;-75
2020/12/15 10:23:35;;;;;;;9.77;7.30;;;8.70;99.90;;;9.61;67.76;99871.81;4733301;30;20221;-80
2020/12/15 10:26:04;;;;;;;9.50;7.30;;;8.70;99.90;;;9.89;66.66;99872.97;4733490;30;20239;-81
2020/12/15 10:28:33;;;;;;;9.00;7.67;;;8.80;99.90;;;9.91;65.78;99859.31;4732952;30;20247;-79
2020/12/15 10:31:00;;;;;;;10.80;7.60;;;8.80;99.90;;;9.89;66.15;99859.53;4733124;30;20221;-81
2020/12/15 10:33:29;;;;;;;10.10;7.47;;;8.80;99.90;;;9.92;66.22;99860.13;4733027;30;20209;-79
2020/12/15 10:36:04;;;;;;;10.67;7.53;;;8.90;99.90;;;9.98;66.74;99851.19;4732646;30;20681;-75
2020/12/15 10:38:31;;;;;;;13.23;7.70;;;9.00;99.90;;;9.85;67.41;99858.34;4732878;30;20641;-72